Time;durP1;ratioP1;P1;durP2;ratioP2;P2;SDS_P1;SDS_P2;PMS_P1;PMS_P2;Temp;Humidity;BMP_temperature;BMP_pressure;BME280_temperature;BME280_humidity;BME280_pressure;Samples;Min_cycle;Max_cycle;Signal;HPM_P1;HPM_P2
2022/02/22 00:00:32;;;;;;;7.25;2.78;;;;;;;;;;5093733;28;20066;-59
2022/02/22 00:02:59;;;;;;;5.13;3.22;;;;;;;;;;5093786;28;20024;-60
2022/02/22 00:05:25;;;;;;;4.57;2.53;;;;;;;;;;5093725;28;20024;-60
2022/02/22 00:07:51;;;;;;;4.68;2.55;;;;;;;;;;5093686;28;20398;-60
2022/02/22 00:10:17;;;;;;;5.80;2.75;;;;;;;;;;5093222;28;20057;-60
2022/02/22 00:12:43;;;;;;;5.07;2.22;;;;;;;;;;5093679;28;20485;-60
2022/02/22 00:15:09;;;;;;;4.55;2.42;;;;;;;;;;5093930;28;20351;-60
2022/02/22 00:17:38;;;;;;;3.78;2.15;;;;;;;;;;5093694;28;20112;-60
2022/02/22 00:20:05;;;;;;;3.97;2.50;;;;;;;;;;5093485;28;20016;-60
2022/02/22 00:22:30;;;;;;;4.47;2.70;;;;;;;;;;5093199;28;20060;-60
2022/02/22 00:24:56;;;;;;;3.55;2.03;;;;;;;;;;5093450;28;20481;-60
2022/02/22 00:27:21;;;;;;;4.43;2.20;;;;;;;;;;5093522;28;20032;-60
2022/02/22 00:29:47;;;;;;;2.60;2.15;;;;;;;;;;5093325;28;20420;-61
2022/02/22 00:32:13;;;;;;;4.35;1.90;;;;;;;;;;5092417;28;20034;-67
2022/02/22 00:34:38;;;;;;;3.95;1.98;;;;;;;;;;5093174;28;20098;-67
2022/02/22 00:37:04;;;;;;;3.35;2.00;;;;;;;;;;5093385;28;20027;-67
2022/02/22 00:39:29;;;;;;;4.75;2.20;;;;;;;;;;5093137;28;20066;-68
2022/02/22 00:41:54;;;;;;;4.75;2.20;;;;;;;;;;5093283;28;20085;-67
2022/02/22 00:44:21;;;;;;;3.80;2.10;;;;;;;;;;5093289;28;20443;-67
2022/02/22 00:46:47;;;;;;;2.78;1.88;;;;;;;;;;5093456;28;20036;-68
2022/02/22 00:49:13;;;;;;;4.05;1.88;;;;;;;;;;5092908;28;20051;-69
2022/02/22 00:51:38;;;;;;;4.22;1.90;;;;;;;;;;5093394;28;20115;-67
2022/02/22 00:54:04;;;;;;;5.05;2.13;;;;;;;;;;5093169;28;20039;-68
2022/02/22 00:56:29;;;;;;;3.42;1.88;;;;;;;;;;5093453;28;20031;-67
2022/02/22 00:58:55;;;;;;;3.55;1.77;;;;;;;;;;5093171;28;20020;-67
2022/02/22 01:01:24;;;;;;;4.03;1.88;;;;;;;;;;5093321;28;20119;-67
2022/02/22 01:03:50;;;;;;;2.92;2.05;;;;;;;;;;5094730;28;20467;-68
2022/02/22 01:06:15;;;;;;;3.97;2.10;;;;;;;;;;5097073;28;20119;-68
2022/02/22 01:08:41;;;;;;;3.17;2.17;;;;;;;;;;5096716;28;20021;-68
2022/02/22 01:11:07;;;;;;;2.60;2.00;;;;;;;;;;5095518;28;20028;-67
2022/02/22 01:13:32;;;;;;;4.40;1.98;;;;;;;;;;5096528;28;20066;-67
2022/02/22 01:15:58;;;;;;;2.95;1.85;;;;;;;;;;5096918;28;20040;-67
2022/02/22 01:18:23;;;;;;;3.97;2.40;;;;;;;;;;5096884;28;20030;-67
2022/02/22 01:20:49;;;;;;;3.78;2.13;;;;;;;;;;5096642;28;20030;-67
2022/02/22 01:23:15;;;;;;;4.78;2.30;;;;;;;;;;5095508;28;20458;-67
2022/02/22 01:25:40;;;;;;;3.15;1.73;;;;;;;;;;5096720;28;20522;-67
2022/02/22 01:28:06;;;;;;;5.57;2.15;;;;;;;;;;5096566;28;20024;-67
2022/02/22 01:30:31;;;;;;;3.85;2.05;;;;;;;;;;5096392;28;20524;-67
2022/02/22 01:32:58;;;;;;;3.75;2.08;;;;;;;;;;5096292;28;20024;-59
2022/02/22 01:35:23;;;;;;;3.00;2.05;;;;;;;;;;5096383;28;20041;-59
2022/02/22 01:37:53;;;;;;;2.95;1.98;;;;;;;;;;5095291;28;20008;-60
2022/02/22 01:40:18;;;;;;;4.68;2.28;;;;;;;;;;5096130;28;20027;-60
2022/02/22 01:42:44;;;;;;;3.42;2.03;;;;;;;;;;5096823;28;20531;-60
2022/02/22 01:45:10;;;;;;;4.80;2.03;;;;;;;;;;5096364;28;20032;-60
2022/02/22 01:47:35;;;;;;;5.75;2.22;;;;;;;;;;5094409;28;20083;-60
2022/02/22 01:50:01;;;;;;;2.70;1.65;;;;;;;;;;5096422;28;20145;-60
2022/02/22 01:52:27;;;;;;;3.13;1.92;;;;;;;;;;5095822;28;20069;-60
2022/02/22 01:54:53;;;;;;;3.78;1.88;;;;;;;;;;5094538;28;20024;-60
2022/02/22 01:57:18;;;;;;;2.97;1.73;;;;;;;;;;5094295;28;20020;-60
2022/02/22 01:59:44;;;;;;;3.17;1.95;;;;;;;;;;5095137;28;20028;-59
2022/02/22 02:02:10;;;;;;;3.42;1.80;;;;;;;;;;5094434;28;20024;-61
2022/02/22 02:04:36;;;;;;;3.28;2.05;;;;;;;;;;5095770;28;20474;-61
2022/02/22 02:07:01;;;;;;;5.63;1.88;;;;;;;;;;5095775;28;20359;-60
2022/02/22 02:09:27;;;;;;;4.45;2.00;;;;;;;;;;5095471;28;20489;-60
2022/02/22 02:11:56;;;;;;;2.05;1.63;;;;;;;;;;5094247;28;20024;-60
2022/02/22 02:14:22;;;;;;;2.92;1.85;;;;;;;;;;5095368;28;20044;-60
2022/02/22 02:16:47;;;;;;;3.17;1.67;;;;;;;;;;5095451;28;20527;-67
2022/02/22 02:19:14;;;;;;;3.30;1.63;;;;;;;;;;5095239;28;20162;-67
2022/02/22 02:21:40;;;;;;;2.28;1.20;;;;;;;;;;5094048;28;20470;-66
2022/02/22 02:24:26;;;;;;;3.05;1.70;;;;;;;;;;5095451;28;20032;-67
2022/02/22 02:26:53;;;;;;;1.83;1.60;;;;;;;;;;5095216;28;20063;-67
2022/02/22 02:29:21;;;;;;;1.63;1.52;;;;;;;;;;5095164;28;20078;-67
2022/02/22 02:31:48;;;;;;;2.75;1.67;;;;;;;;;;5094971;28;20020;-67
2022/02/22 02:34:18;;;;;;;2.08;1.48;;;;;;;;;;5093957;28;20374;-68
2022/02/22 02:36:51;;;;;;;2.90;1.70;;;;;;;;;;5094910;28;20036;-67
2022/02/22 02:39:26;;;;;;;2.08;1.30;;;;;;;;;;5095010;28;20073;-67
2022/02/22 02:41:52;;;;;;;2.47;1.70;;;;;;;;;;5094493;28;20040;-61
2022/02/22 02:44:19;;;;;;;2.53;1.40;;;;;;;;;;5093130;28;20034;-61
2022/02/22 02:46:45;;;;;;;2.13;1.50;;;;;;;;;;5094614;28;20035;-61
2022/02/22 02:49:12;;;;;;;2.13;1.55;;;;;;;;;;5094328;28;20032;-61
2022/02/22 02:51:37;;;;;;;2.47;1.30;;;;;;;;;;5093852;28;20130;-67
2022/02/22 02:54:03;;;;;;;1.42;1.33;;;;;;;;;;5094562;28;20071;-61
2022/02/22 02:56:29;;;;;;;2.38;1.30;;;;;;;;;;5094860;28;20020;-60
2022/02/22 02:58:56;;;;;;;1.50;1.38;;;;;;;;;;5094946;28;20076;-67
2022/02/22 03:01:23;;;;;;;2.80;1.40;;;;;;;;;;5094939;28;20500;-67
2022/02/22 03:03:49;;;;;;;1.88;1.27;;;;;;;;;;5094734;28;20378;-67
2022/02/22 03:06:14;;;;;;;2.22;1.27;;;;;;;;;;5094401;28;20028;-67
2022/02/22 03:08:40;;;;;;;2.05;1.40;;;;;;;;;;5093003;28;20426;-67
2022/02/22 03:11:05;;;;;;;1.75;1.17;;;;;;;;;;5094666;28;20030;-67
2022/02/22 03:13:30;;;;;;;1.58;1.17;;;;;;;;;;5094349;28;20434;-67
2022/02/22 03:15:56;;;;;;;2.47;1.73;;;;;;;;;;5094392;28;20032;-67
2022/02/22 03:18:21;;;;;;;1.48;1.35;;;;;;;;;;5092934;28;20038;-66
2022/02/22 03:20:47;;;;;;;1.20;1.10;;;;;;;;;;5094355;28;20039;-66
2022/02/22 03:23:13;;;;;;;1.50;1.40;;;;;;;;;;5093191;28;20071;-68
2022/02/22 03:25:48;;;;;;;3.03;1.10;;;;;;;;;;5094155;28;20051;-67
2022/02/22 03:28:18;;;;;;;1.20;1.08;;;;;;;;;;5092556;28;20032;-68
2022/02/22 03:30:43;;;;;;;1.00;0.90;;;;;;;;;;5093933;28;20114;-60
2022/02/22 03:33:10;;;;;;;1.85;1.08;;;;;;;;;;5093720;28;20430;-60
2022/02/22 03:35:35;;;;;;;1.20;0.80;;;;;;;;;;5094270;28;20013;-60
2022/02/22 03:38:01;;;;;;;1.00;0.60;;;;;;;;;;5094203;28;20028;-60
2022/02/22 03:40:27;;;;;;;0.77;0.77;;;;;;;;;;5092817;28;20031;-60
2022/02/22 03:42:52;;;;;;;0.60;0.60;;;;;;;;;;5093899;28;20024;-60
2022/02/22 03:45:18;;;;;;;2.35;0.80;;;;;;;;;;5092887;28;20479;-60
2022/02/22 03:47:44;;;;;;;0.75;0.70;;;;;;;;;;5093372;28;20158;-60
2022/02/22 03:50:10;;;;;;;0.70;0.70;;;;;;;;;;5094052;28;20040;-60
2022/02/22 03:52:36;;;;;;;0.88;0.80;;;;;;;;;;5093848;28;20020;-59
2022/02/22 03:55:03;;;;;;;0.70;0.70;;;;;;;;;;5093703;28;20023;-60
2022/02/22 03:57:28;;;;;;;0.80;0.60;;;;;;;;;;5093846;28;20157;-60
2022/02/22 03:59:54;;;;;;;0.77;0.77;;;;;;;;;;5092678;28;20041;-60
2022/02/22 04:02:19;;;;;;;0.60;0.60;;;;;;;;;;5092387;28;20047;-61
2022/02/22 04:04:45;;;;;;;0.98;0.70;;;;;;;;;;5093464;28;20089;-60
2022/02/22 04:07:10;;;;;;;0.85;0.80;;;;;;;;;;5093878;28;20043;-60
2022/02/22 04:09:36;;;;;;;0.50;0.50;;;;;;;;;;5093717;28;20017;-60
2022/02/22 04:12:02;;;;;;;0.50;0.50;;;;;;;;;;5093757;28;20066;-60
2022/02/22 04:14:29;;;;;;;0.60;0.60;;;;;;;;;;5093699;28;20019;-60
2022/02/22 04:16:54;;;;;;;0.50;0.50;;;;;;;;;;5093697;28;20021;-60
2022/02/22 04:19:20;;;;;;;0.70;0.70;;;;;;;;;;5093385;28;20031;-66
2022/02/22 04:21:46;;;;;;;0.63;0.60;;;;;;;;;;5093716;28;20027;-66
2022/02/22 04:24:11;;;;;;;1.30;0.70;;;;;;;;;;5093442;28;20039;-65
2022/02/22 04:26:37;;;;;;;0.50;0.50;;;;;;;;;;5093550;28;20063;-60
2022/02/22 04:29:04;;;;;;;0.68;0.68;;;;;;;;;;5093633;28;20111;-60
2022/02/22 04:31:39;;;;;;;0.50;0.50;;;;;;;;;;5093318;28;20466;-60
2022/02/22 04:34:08;;;;;;;0.80;0.70;;;;;;;;;;5093306;28;20024;-60
2022/02/22 04:36:33;;;;;;;1.00;0.85;;;;;;;;;;5093541;28;20016;-60
2022/02/22 04:39:00;;;;;;;1.15;0.70;;;;;;;;;;5095927;28;20112;-60
2022/02/22 04:41:25;;;;;;;0.70;0.70;;;;;;;;;;5096786;28;20016;-60
2022/02/22 04:43:51;;;;;;;0.80;0.80;;;;;;;;;;5097344;28;20081;-60
2022/02/22 04:46:17;;;;;;;0.80;0.80;;;;;;;;;;5097525;28;20458;-67
2022/02/22 04:48:42;;;;;;;0.98;0.85;;;;;;;;;;5097182;28;20040;-67
2022/02/22 04:51:08;;;;;;;0.75;0.68;;;;;;;;;;5096918;28;20054;-67
2022/02/22 04:53:33;;;;;;;1.00;0.70;;;;;;;;;;5097049;28;20082;-67
2022/02/22 04:56:01;;;;;;;0.82;0.80;;;;;;;;;;5095940;28;20016;-67
2022/02/22 04:58:27;;;;;;;0.88;0.75;;;;;;;;;;5096932;28;20027;-68
2022/02/22 05:00:53;;;;;;;1.63;1.35;;;;;;;;;;5097013;28;20113;-67
2022/02/22 05:03:18;;;;;;;1.38;1.17;;;;;;;;;;5096794;28;20490;-67
2022/02/22 05:05:44;;;;;;;1.42;1.13;;;;;;;;;;5096756;28;20016;-60
2022/02/22 05:08:09;;;;;;;1.17;0.90;;;;;;;;;;5096902;28;20386;-60
2022/02/22 05:10:35;;;;;;;1.75;0.85;;;;;;;;;;5096701;28;20024;-60
2022/02/22 05:13:01;;;;;;;1.05;0.80;;;;;;;;;;5096720;28;20478;-60
2022/02/22 05:15:27;;;;;;;1.08;0.80;;;;;;;;;;5096625;28;20521;-59
2022/02/22 05:17:56;;;;;;;2.15;0.93;;;;;;;;;;5095472;28;20041;-60
2022/02/22 05:20:22;;;;;;;1.25;0.82;;;;;;;;;;5096610;28;20153;-60
2022/02/22 05:22:48;;;;;;;1.13;0.70;;;;;;;;;;5096137;28;20114;-60
2022/02/22 05:25:14;;;;;;;1.58;1.00;;;;;;;;;;5096526;28;20103;-61
2022/02/22 05:27:40;;;;;;;2.30;1.20;;;;;;;;;;5096588;28;20446;-59
2022/02/22 05:30:06;;;;;;;1.58;1.17;;;;;;;;;;5096378;28;20129;-60
2022/02/22 05:32:32;;;;;;;2.92;1.10;;;;;;;;;;5096740;28;20110;-59
2022/02/22 05:34:58;;;;;;;2.00;1.25;;;;;;;;;;5096192;28;20145;-59
2022/02/22 05:37:24;;;;;;;1.95;1.42;;;;;;;;;;5096672;28;20036;-59
2022/02/22 05:39:50;;;;;;;2.15;1.23;;;;;;;;;;5096319;28;20020;-60
2022/02/22 05:42:15;;;;;;;1.90;1.30;;;;;;;;;;5096212;28;20028;-60
2022/02/22 05:44:41;;;;;;;1.80;0.93;;;;;;;;;;5096189;28;20477;-60
2022/02/22 05:47:06;;;;;;;1.40;1.30;;;;;;;;;;5095605;28;20500;-60
2022/02/22 05:49:32;;;;;;;1.90;1.45;;;;;;;;;;5093597;28;20561;-60
2022/02/22 05:51:57;;;;;;;1.33;1.13;;;;;;;;;;5095755;28;20485;-60
2022/02/22 05:54:23;;;;;;;2.83;1.30;;;;;;;;;;5094802;28;20035;-60
2022/02/22 05:56:48;;;;;;;1.40;1.23;;;;;;;;;;5096056;28;20020;-60
2022/02/22 05:59:14;;;;;;;2.53;1.35;;;;;;;;;;5095682;28;20085;-60
2022/02/22 06:01:43;;;;;;;2.50;1.35;;;;;;;;;;5095857;28;20537;-59
2022/02/22 06:04:10;;;;;;;2.80;1.38;;;;;;;;;;5095856;28;20032;-59
2022/02/22 06:06:36;;;;;;;4.43;1.73;;;;;;;;;;5095871;28;20401;-61
2022/02/22 06:09:01;;;;;;;4.80;2.25;;;;;;;;;;5095593;28;20450;-60
2022/02/22 06:11:27;;;;;;;1.55;1.35;;;;;;;;;;5095671;28;20020;-61
2022/02/22 06:13:52;;;;;;;2.03;1.52;;;;;;;;;;5095926;28;20020;-60
2022/02/22 06:16:18;;;;;;;1.95;1.50;;;;;;;;;;5095930;28;20105;-60
2022/02/22 06:18:44;;;;;;;1.77;1.35;;;;;;;;;;5077497;28;20031;-59
2022/02/22 06:21:09;;;;;;;2.35;1.38;;;;;;;;;;5095121;28;20107;-60
2022/02/22 06:23:35;;;;;;;1.50;1.40;;;;;;;;;;5093872;28;20027;-59
2022/02/22 06:26:00;;;;;;;1.30;1.20;;;;;;;;;;5095042;28;20024;-59
2022/02/22 06:28:25;;;;;;;2.05;1.55;;;;;;;;;;5094146;28;20494;-60
2022/02/22 06:30:51;;;;;;;2.20;1.60;;;;;;;;;;5095105;28;20085;-61
2022/02/22 06:33:16;;;;;;;1.98;1.70;;;;;;;;;;5095067;28;20059;-60
2022/02/22 06:35:42;;;;;;;2.13;1.30;;;;;;;;;;5095273;28;20048;-60
2022/02/22 06:38:07;;;;;;;3.75;1.42;;;;;;;;;;5095697;28;20032;-60
2022/02/22 06:40:36;;;;;;;1.85;1.30;;;;;;;;;;5094791;28;20137;-61
2022/02/22 06:43:02;;;;;;;1.52;1.40;;;;;;;;;;5094708;28;20074;-60
2022/02/22 06:45:28;;;;;;;3.88;1.98;;;;;;;;;;5094781;28;20064;-60
2022/02/22 06:47:53;;;;;;;2.80;1.63;;;;;;;;;;5094190;28;20043;-60
2022/02/22 06:50:19;;;;;;;3.25;1.73;;;;;;;;;;5094264;28;20035;-60
2022/02/22 06:52:44;;;;;;;2.92;2.13;;;;;;;;;;5093170;28;20028;-60
2022/02/22 06:55:11;;;;;;;3.47;1.60;;;;;;;;;;5094437;28;20024;-59
2022/02/22 06:57:36;;;;;;;4.53;2.00;;;;;;;;;;5094528;28;20035;-60
2022/02/22 07:00:03;;;;;;;4.07;2.22;;;;;;;;;;5094265;28;20016;-60
2022/02/22 07:02:29;;;;;;;4.78;2.15;;;;;;;;;;5094122;28;20485;-60
2022/02/22 07:04:54;;;;;;;3.28;1.83;;;;;;;;;;5093124;28;20066;-60
2022/02/22 07:07:20;;;;;;;4.55;2.25;;;;;;;;;;5094111;28;20063;-59
2022/02/22 07:09:45;;;;;;;4.53;2.20;;;;;;;;;;5094123;28;20027;-59
2022/02/22 07:12:11;;;;;;;5.80;2.50;;;;;;;;;;5094106;28;20032;-59
2022/02/22 07:14:36;;;;;;;3.22;1.88;;;;;;;;;;5094033;28;20028;-60
2022/02/22 07:17:03;;;;;;;2.53;1.80;;;;;;;;;;5093947;28;20036;-60
2022/02/22 07:19:30;;;;;;;4.30;1.83;;;;;;;;;;5092724;28;20024;-60
2022/02/22 07:21:55;;;;;;;5.90;2.75;;;;;;;;;;5093510;28;20531;-60
2022/02/22 07:24:21;;;;;;;4.03;2.00;;;;;;;;;;5092836;28;20016;-60
2022/02/22 07:26:46;;;;;;;4.97;1.98;;;;;;;;;;5093823;28;20122;-60
2022/02/22 07:29:12;;;;;;;3.67;2.08;;;;;;;;;;5093828;28;20103;-60
2022/02/22 07:31:37;;;;;;;3.92;2.08;;;;;;;;;;5093746;28;20027;-59
2022/02/22 07:34:02;;;;;;;2.28;1.75;;;;;;;;;;5093772;28;20355;-60
2022/02/22 07:36:32;;;;;;;3.28;2.20;;;;;;;;;;5093639;28;20043;-60
2022/02/22 07:38:57;;;;;;;4.07;2.67;;;;;;;;;;5093669;28;20176;-60
2022/02/22 07:41:23;;;;;;;2.25;1.88;;;;;;;;;;5093691;28;20150;-60
2022/02/22 07:43:50;;;;;;;2.28;1.80;;;;;;;;;;5093516;28;20020;-60
2022/02/22 07:46:17;;;;;;;5.00;1.98;;;;;;;;;;5092251;28;20028;-60
2022/02/22 07:48:46;;;;;;;2.72;1.83;;;;;;;;;;5093420;28;20520;-60
2022/02/22 07:51:18;;;;;;;3.20;1.85;;;;;;;;;;5093342;28;20032;-60
2022/02/22 07:53:44;;;;;;;4.40;2.00;;;;;;;;;;5093510;28;20056;-60
2022/02/22 07:56:10;;;;;;;3.90;1.70;;;;;;;;;;5093406;28;20061;-60
2022/02/22 07:58:35;;;;;;;2.47;1.45;;;;;;;;;;5093348;28;20032;-62
2022/02/22 08:01:01;;;;;;;4.13;1.65;;;;;;;;;;5093234;28;20114;-59
2022/02/22 08:03:26;;;;;;;2.55;1.67;;;;;;;;;;5093332;28;20485;-60
2022/02/22 08:05:51;;;;;;;4.28;2.53;;;;;;;;;;5093257;28;20024;-60
2022/02/22 08:08:17;;;;;;;3.78;1.83;;;;;;;;;;5093235;28;20066;-72
2022/02/22 08:10:42;;;;;;;2.47;2.28;;;;;;;;;;5093068;28;20040;-59
2022/02/22 08:13:08;;;;;;;4.82;2.67;;;;;;;;;;5093015;28;20069;-58
2022/02/22 08:15:33;;;;;;;3.40;2.25;;;;;;;;;;5093099;28;20024;-58
2022/02/22 08:17:59;;;;;;;3.33;2.15;;;;;;;;;;5092652;28;20478;-58
2022/02/22 08:20:24;;;;;;;2.58;1.95;;;;;;;;;;5093512;28;20054;-58
2022/02/22 08:22:51;;;;;;;2.88;1.77;;;;;;;;;;5093389;28;20123;-58
2022/02/22 08:25:17;;;;;;;6.32;2.58;;;;;;;;;;5093584;28;20012;-58
2022/02/22 08:27:42;;;;;;;4.10;2.25;;;;;;;;;;5093405;28;20042;-58
2022/02/22 08:30:08;;;;;;;1.77;1.63;;;;;;;;;;5093479;28;20367;-58
2022/02/22 08:32:35;;;;;;;2.65;1.88;;;;;;;;;;5093059;28;20078;-58
2022/02/22 08:35:00;;;;;;;3.08;2.05;;;;;;;;;;5093104;28;20021;-58
2022/02/22 08:37:25;;;;;;;4.85;2.67;;;;;;;;;;5092945;28;20541;-58
2022/02/22 08:39:51;;;;;;;5.00;2.40;;;;;;;;;;5092925;28;20378;-58
2022/02/22 08:42:16;;;;;;;2.40;2.15;;;;;;;;;;5091631;28;20063;-58
2022/02/22 08:44:42;;;;;;;3.85;2.40;;;;;;;;;;5092831;28;20077;-58
2022/02/22 08:47:07;;;;;;;3.58;2.70;;;;;;;;;;5092566;28;20036;-58
2022/02/22 15:50:10;;;;;;;4.95;1.88;;;;;;;;;;5032603;28;20058;-68
2022/02/22 15:52:36;;;;;;;4.50;2.08;;;;;;;;;;5093431;28;20048;-68
2022/02/22 15:55:02;;;;;;;6.22;2.25;;;;;;;;;;5093840;28;20097;-68
2022/02/22 15:57:27;;;;;;;6.85;3.08;;;;;;;;;;5094153;28;20026;-68
2022/02/22 15:59:53;;;;;;;10.50;3.35;;;;;;;;;;5093639;28;20036;-68
2022/02/22 16:02:19;;;;;;;3.90;1.73;;;;;;;;;;5093909;28;20044;-68
2022/02/22 16:04:44;;;;;;;3.95;2.03;;;;;;;;;;5093601;28;20043;-68
2022/02/22 16:07:10;;;;;;;4.15;1.88;;;;;;;;;;5094017;28;20378;-68
2022/02/22 16:09:36;;;;;;;3.03;1.67;;;;;;;;;;5093410;28;20036;-68
2022/02/22 16:12:02;;;;;;;6.10;2.05;;;;;;;;;;5093642;28;20024;-68
2022/02/22 16:14:28;;;;;;;3.30;1.75;;;;;;;;;;5093536;28;20078;-70
2022/02/22 16:16:54;;;;;;;4.25;1.80;;;;;;;;;;5093433;28;20024;-71
2022/02/22 16:19:21;;;;;;;6.15;1.80;;;;;;;;;;5091422;28;20105;-68
2022/02/22 16:21:46;;;;;;;5.43;2.33;;;;;;;;;;5089813;28;20028;-68
2022/02/22 16:24:12;;;;;;;6.78;3.35;;;;;;;;;;5089489;28;20024;-68
2022/02/22 16:26:38;;;;;;;3.95;2.08;;;;;;;;;;5087505;28;20116;-68
2022/02/22 16:29:04;;;;;;;2.90;2.03;;;;;;;;;;5088564;28;20058;-68
2022/02/22 16:31:31;;;;;;;3.55;2.33;;;;;;;;;;5088926;28;20112;-68
2022/02/22 16:33:56;;;;;;;3.72;1.90;;;;;;;;;;5089862;28;20020;-68
2022/02/22 16:36:22;;;;;;;3.88;2.05;;;;;;;;;;5092794;28;20039;-68
2022/02/22 16:38:47;;;;;;;3.28;1.95;;;;;;;;;;5092793;28;20035;-68
2022/02/22 16:41:14;;;;;;;4.80;2.17;;;;;;;;;;5092764;28;20028;-69
2022/02/22 16:43:40;;;;;;;5.40;2.40;;;;;;;;;;5093046;28;20032;-68
2022/02/22 16:46:07;;;;;;;6.50;3.00;;;;;;;;;;5093274;28;20032;-69
2022/02/22 16:48:33;;;;;;;2.53;1.98;;;;;;;;;;5092495;28;20018;-68
2022/02/22 16:51:00;;;;;;;5.28;2.40;;;;;;;;;;5092684;28;20733;-69
2022/02/22 16:53:26;;;;;;;3.78;2.00;;;;;;;;;;5092928;28;20047;-68
2022/02/22 16:55:55;;;;;;;3.42;2.20;;;;;;;;;;5092748;28;20035;-68
2022/02/22 16:58:22;;;;;;;5.13;2.35;;;;;;;;;;5092854;28;20047;-68
2022/02/22 17:00:51;;;;;;;6.28;2.30;;;;;;;;;;5089204;28;20036;-68
2022/02/22 17:03:17;;;;;;;5.78;3.03;;;;;;;;;;5083810;28;20086;-68
2022/02/22 17:05:57;;;;;;;6.55;2.47;;;;;;;;;;5092326;28;20036;-71
2022/02/22 17:08:24;;;;;;;5.15;2.72;;;;;;;;;;5092647;28;20032;-68
2022/02/22 17:10:53;;;;;;;6.30;3.05;;;;;;;;;;5092286;28;20039;-68
2022/02/22 17:13:19;;;;;;;5.75;3.15;;;;;;;;;;5092589;28;20501;-68
2022/02/22 17:15:45;;;;;;;6.20;3.00;;;;;;;;;;5090942;28;20474;-68
2022/02/22 17:18:15;;;;;;;7.28;3.63;;;;;;;;;;5092817;28;20500;-68
2022/02/22 17:20:41;;;;;;;8.35;3.72;;;;;;;;;;5091902;28;20481;-69
2022/02/22 17:23:06;;;;;;;9.73;4.68;;;;;;;;;;5091275;28;20027;-69
2022/02/22 17:25:32;;;;;;;16.60;6.75;;;;;;;;;;5091992;28;20032;-70
2022/02/22 17:27:57;;;;;;;13.30;5.10;;;;;;;;;;5091978;28;20038;-68
2022/02/22 17:30:23;;;;;;;11.85;5.82;;;;;;;;;;5090084;28;20068;-69
2022/02/22 17:32:48;;;;;;;8.23;3.80;;;;;;;;;;5091698;28;20042;-69
2022/02/22 17:35:15;;;;;;;7.90;3.33;;;;;;;;;;5091849;28;20131;-69
2022/02/22 17:37:40;;;;;;;6.20;3.28;;;;;;;;;;5091645;28;20489;-69
2022/02/22 17:40:07;;;;;;;9.20;4.18;;;;;;;;;;5091479;28;20039;-69
2022/02/22 17:42:32;;;;;;;8.90;4.10;;;;;;;;;;5091614;28;20024;-69
2022/02/22 17:44:58;;;;;;;4.35;2.88;;;;;;;;;;5090966;28;20054;-69
2022/02/22 17:47:23;;;;;;;7.15;3.13;;;;;;;;;;5091060;28;20028;-69
2022/02/22 17:49:49;;;;;;;7.97;3.42;;;;;;;;;;5090926;28;20059;-69
2022/02/22 17:52:14;;;;;;;5.45;3.25;;;;;;;;;;5091302;28;20469;-69
2022/02/22 17:54:46;;;;;;;5.85;3.45;;;;;;;;;;5091129;28;20019;-69
2022/02/22 17:57:13;;;;;;;6.60;3.10;;;;;;;;;;5089834;28;20055;-69
2022/02/22 17:59:38;;;;;;;4.90;2.88;;;;;;;;;;5091011;28;20482;-69
2022/02/22 18:02:05;;;;;;;6.93;3.45;;;;;;;;;;5090962;28;20143;-69
2022/02/22 18:04:30;;;;;;;7.55;3.85;;;;;;;;;;5091590;28;20023;-69
2022/02/22 18:06:56;;;;;;;8.70;3.75;;;;;;;;;;5091482;28;20107;-69
2022/02/22 18:09:23;;;;;;;7.40;3.38;;;;;;;;;;5091092;28;20012;-69
2022/02/22 18:11:49;;;;;;;5.45;3.30;;;;;;;;;;5091011;28;20517;-69
2022/02/22 18:14:14;;;;;;;6.20;3.47;;;;;;;;;;5091166;28;20024;-69
2022/02/22 18:16:40;;;;;;;7.60;3.40;;;;;;;;;;5090975;28;20122;-72
2022/02/22 18:19:06;;;;;;;8.55;3.45;;;;;;;;;;5090783;28;20026;-69
2022/02/22 18:21:33;;;;;;;6.57;3.65;;;;;;;;;;5090802;28;20337;-69
2022/02/22 18:23:59;;;;;;;6.25;3.15;;;;;;;;;;5090846;28;20042;-70
2022/02/22 18:26:28;;;;;;;11.15;3.25;;;;;;;;;;5090780;28;20100;-68
2022/02/22 18:28:55;;;;;;;7.05;3.40;;;;;;;;;;5090613;28;20078;-69
2022/02/22 18:31:20;;;;;;;7.10;4.10;;;;;;;;;;5090292;28;20060;-69
2022/02/22 18:33:46;;;;;;;7.45;4.03;;;;;;;;;;5090858;28;20508;-69
2022/02/22 18:36:13;;;;;;;8.68;3.58;;;;;;;;;;5090452;28;20039;-69
2022/02/22 18:38:38;;;;;;;11.38;5.18;;;;;;;;;;5090531;28;20474;-69
2022/02/22 18:41:05;;;;;;;11.93;5.63;;;;;;;;;;5090058;28;20032;-69
2022/02/22 18:43:31;;;;;;;14.15;5.90;;;;;;;;;;5089069;28;20382;-72
2022/02/22 18:45:57;;;;;;;11.90;5.43;;;;;;;;;;5090440;28;20036;-69
2022/02/22 18:48:22;;;;;;;7.45;3.97;;;;;;;;;;5090218;28;20031;-69
2022/02/22 18:50:48;;;;;;;8.02;4.00;;;;;;;;;;5090077;28;20557;-69
2022/02/22 18:53:13;;;;;;;9.10;4.35;;;;;;;;;;5089971;28;20055;-69
2022/02/22 18:55:39;;;;;;;13.75;5.80;;;;;;;;;;5090210;28;20112;-69
2022/02/22 18:58:04;;;;;;;10.80;5.20;;;;;;;;;;5089730;28;20024;-69
2022/02/22 19:00:30;;;;;;;11.57;4.80;;;;;;;;;;5090135;28;20047;-69
2022/02/22 19:02:55;;;;;;;10.80;4.38;;;;;;;;;;5090398;28;20382;-69
2022/02/22 19:05:21;;;;;;;14.27;5.95;;;;;;;;;;5090166;28;20583;-69
2022/02/22 19:07:46;;;;;;;11.93;5.68;;;;;;;;;;5090442;28;20035;-69
2022/02/22 19:10:12;;;;;;;12.13;5.38;;;;;;;;;;5089556;28;20520;-69
2022/02/22 19:12:37;;;;;;;9.70;4.65;;;;;;;;;;5090178;28;20030;-69
2022/02/22 19:15:03;;;;;;;14.25;5.93;;;;;;;;;;5090127;28;20523;-69
2022/02/22 19:17:29;;;;;;;15.88;6.47;;;;;;;;;;5089815;28;20028;-69
2022/02/22 19:19:54;;;;;;;25.77;10.07;;;;;;;;;;5089733;28;20390;-69
2022/02/22 19:22:21;;;;;;;50.55;18.10;;;;;;;;;;5090233;28;20022;-69
2022/02/22 19:24:47;;;;;;;50.45;17.63;;;;;;;;;;5089646;28;20043;-69
2022/02/22 19:27:12;;;;;;;71.70;26.25;;;;;;;;;;5087784;28;20020;-69
2022/02/22 19:29:38;;;;;;;89.60;33.65;;;;;;;;;;5089471;28;20073;-69
2022/02/22 19:32:03;;;;;;;70.82;25.52;;;;;;;;;;5089638;28;20022;-69
2022/02/22 19:34:29;;;;;;;32.45;11.00;;;;;;;;;;5089507;28;20085;-69
2022/02/22 19:36:55;;;;;;;20.17;7.70;;;;;;;;;;5089670;28;20020;-69
2022/02/22 19:39:21;;;;;;;21.63;8.00;;;;;;;;;;5089452;28;20039;-69
2022/02/22 19:41:47;;;;;;;23.15;8.95;;;;;;;;;;5089377;28;20028;-69
2022/02/22 19:44:13;;;;;;;25.33;9.80;;;;;;;;;;5089274;28;20550;-69
2022/02/22 19:46:39;;;;;;;24.38;9.45;;;;;;;;;;5089302;28;20038;-69
2022/02/22 19:49:04;;;;;;;22.42;9.02;;;;;;;;;;5088758;28;20054;-69
2022/02/22 19:51:30;;;;;;;19.77;8.45;;;;;;;;;;5089012;28;20102;-69
2022/02/22 19:53:56;;;;;;;20.08;8.75;;;;;;;;;;5089071;28;20042;-70
2022/02/22 19:56:21;;;;;;;24.27;10.75;;;;;;;;;;5087760;28;20035;-69
2022/02/22 19:58:47;;;;;;;24.45;11.07;;;;;;;;;;5089082;28;20035;-69
2022/02/22 20:01:12;;;;;;;26.55;10.50;;;;;;;;;;5089101;28;20024;-70
2022/02/22 20:03:42;;;;;;;23.58;9.75;;;;;;;;;;5089023;28;20028;-69
2022/02/22 20:06:07;;;;;;;24.00;10.38;;;;;;;;;;5087965;28;20089;-71
2022/02/22 20:08:33;;;;;;;23.55;10.40;;;;;;;;;;5087240;28;20040;-70
2022/02/22 20:11:00;;;;;;;21.30;9.57;;;;;;;;;;5089091;28;20031;-71
2022/02/22 20:13:25;;;;;;;22.75;10.07;;;;;;;;;;5089474;28;20018;-70
2022/02/22 20:15:53;;;;;;;30.50;14.15;;;;;;;;;;5089379;28;20485;-70
2022/02/22 20:18:19;;;;;;;26.10;12.90;;;;;;;;;;5089758;28;20473;-70
2022/02/22 20:20:44;;;;;;;25.35;12.98;;;;;;;;;;5088826;28;20032;-70
2022/02/22 20:23:10;;;;;;;23.80;10.70;;;;;;;;;;5088994;28;20424;-70
2022/02/22 20:25:36;;;;;;;24.15;12.32;;;;;;;;;;5088914;28;20462;-69
2022/02/22 20:28:02;;;;;;;25.45;11.98;;;;;;;;;;5087544;28;20337;-69
2022/02/22 20:30:28;;;;;;;18.23;9.00;;;;;;;;;;5088671;28;20092;-71
2022/02/22 20:32:54;;;;;;;21.60;8.80;;;;;;;;;;5088971;28;20115;-71
2022/02/22 20:35:20;;;;;;;22.38;9.85;;;;;;;;;;5089356;28;20033;-70
2022/02/22 20:37:46;;;;;;;15.55;8.32;;;;;;;;;;5089274;28;20020;-70
2022/02/22 20:40:12;;;;;;;16.08;8.27;;;;;;;;;;5087598;28;20028;-69
2022/02/22 20:42:37;;;;;;;20.83;9.88;;;;;;;;;;5089091;28;20024;-70
2022/02/22 20:45:03;;;;;;;25.40;12.90;;;;;;;;;;5087428;28;20818;-70
2022/02/22 20:47:30;;;;;;;22.95;11.60;;;;;;;;;;5087516;28;20032;-70
2022/02/22 20:49:55;;;;;;;24.67;12.18;;;;;;;;;;5086550;28;20094;-71
2022/02/22 20:52:21;;;;;;;27.27;12.48;;;;;;;;;;5088836;28;20043;-70
2022/02/22 20:54:47;;;;;;;20.00;10.93;;;;;;;;;;5088924;28;20100;-70
2022/02/22 20:57:13;;;;;;;22.35;11.40;;;;;;;;;;5087317;28;20488;-70
2022/02/22 20:59:41;;;;;;;21.70;10.27;;;;;;;;;;5088536;28;20028;-71
2022/02/22 21:02:07;;;;;;;18.10;9.63;;;;;;;;;;5088854;28;20024;-70
2022/02/22 21:04:34;;;;;;;28.20;13.07;;;;;;;;;;5088936;28;20024;-70
2022/02/22 21:07:00;;;;;;;30.25;16.08;;;;;;;;;;5088279;28;20470;-69
2022/02/22 21:09:25;;;;;;;33.65;18.63;;;;;;;;;;5088534;28;20039;-69
2022/02/22 21:11:50;;;;;;;35.83;18.33;;;;;;;;;;5088132;28;20059;-69
2022/02/22 21:14:16;;;;;;;36.70;17.30;;;;;;;;;;5087104;28;20044;-69
2022/02/22 21:16:41;;;;;;;37.80;18.48;;;;;;;;;;5086999;28;20032;-69
2022/02/22 21:19:08;;;;;;;38.08;17.73;;;;;;;;;;5088522;28;20031;-69
2022/02/22 21:21:34;;;;;;;40.40;19.40;;;;;;;;;;5091865;28;20023;-69
2022/02/22 21:23:59;;;;;;;42.60;19.95;;;;;;;;;;5092210;28;20475;-69
2022/02/22 21:26:25;;;;;;;43.85;20.15;;;;;;;;;;5092426;28;20024;-69
2022/02/22 21:28:50;;;;;;;41.30;19.50;;;;;;;;;;5092058;28;20032;-69
2022/02/22 21:31:18;;;;;;;41.22;18.13;;;;;;;;;;5091569;28;20035;-70